sensor_id;sensor_type;location;lat;lon;timestamp;P1;durP1;ratioP1;P2;durP2;ratioP2
11151;SDS011;5630;49.342;10.802;2022-12-11T00:01:56;21.33;;;17.83;;
11151;SDS011;5630;49.342;10.802;2022-12-11T00:04:22;19.47;;;17.27;;
11151;SDS011;5630;49.342;10.802;2022-12-11T00:06:48;22.20;;;18.47;;
11151;SDS011;5630;49.342;10.802;2022-12-11T00:09:15;21.10;;;18.60;;
11151;SDS011;5630;49.342;10.802;2022-12-11T00:11:41;23.70;;;20.30;;
11151;SDS011;5630;49.342;10.802;2022-12-11T00:14:07;22.63;;;18.63;;
11151;SDS011;5630;49.342;10.802;2022-12-11T00:16:32;23.90;;;20.03;;
11151;SDS011;5630;49.342;10.802;2022-12-11T00:18:58;24.93;;;20.47;;
11151;SDS011;5630;49.342;10.802;2022-12-11T00:21:23;23.47;;;20.27;;
11151;SDS011;5630;49.342;10.802;2022-12-11T00:23:49;29.63;;;22.67;;
11151;SDS011;5630;49.342;10.802;2022-12-11T00:26:15;27.57;;;23.57;;
11151;SDS011;5630;49.342;10.802;2022-12-11T00:28:41;27.60;;;22.10;;
11151;SDS011;5630;49.342;10.802;2022-12-11T00:31:10;28.95;;;22.95;;
11151;SDS011;5630;49.342;10.802;2022-12-11T00:33:38;29.52;;;22.20;;
11151;SDS011;5630;49.342;10.802;2022-12-11T00:36:08;26.63;;;21.63;;
11151;SDS011;5630;49.342;10.802;2022-12-11T00:38:36;38.80;;;28.65;;
11151;SDS011;5630;49.342;10.802;2022-12-11T00:41:02;27.90;;;21.33;;
11151;SDS011;5630;49.342;10.802;2022-12-11T00:43:28;27.00;;;22.43;;
11151;SDS011;5630;49.342;10.802;2022-12-11T00:45:53;28.47;;;22.40;;
11151;SDS011;5630;49.342;10.802;2022-12-11T00:48:19;27.70;;;22.70;;
11151;SDS011;5630;49.342;10.802;2022-12-11T00:50:45;29.20;;;23.33;;
11151;SDS011;5630;49.342;10.802;2022-12-11T00:53:10;31.03;;;25.20;;
11151;SDS011;5630;49.342;10.802;2022-12-11T00:55:37;31.10;;;26.13;;
11151;SDS011;5630;49.342;10.802;2022-12-11T00:58:04;30.83;;;24.80;;
11151;SDS011;5630;49.342;10.802;2022-12-11T01:00:30;31.02;;;25.02;;
11151;SDS011;5630;49.342;10.802;2022-12-11T01:02:56;32.08;;;25.92;;
11151;SDS011;5630;49.342;10.802;2022-12-11T01:05:22;31.93;;;26.33;;
11151;SDS011;5630;49.342;10.802;2022-12-11T01:07:48;34.60;;;27.00;;
11151;SDS011;5630;49.342;10.802;2022-12-11T01:10:13;35.20;;;27.60;;
11151;SDS011;5630;49.342;10.802;2022-12-11T01:13:09;36.53;;;28.45;;
11151;SDS011;5630;49.342;10.802;2022-12-11T01:15:38;34.90;;;28.17;;
11151;SDS011;5630;49.342;10.802;2022-12-11T01:18:06;36.25;;;28.52;;
11151;SDS011;5630;49.342;10.802;2022-12-11T01:20:31;37.97;;;29.17;;
11151;SDS011;5630;49.342;10.802;2022-12-11T01:22:58;37.17;;;28.17;;
11151;SDS011;5630;49.342;10.802;2022-12-11T01:25:25;37.10;;;28.23;;
11151;SDS011;5630;49.342;10.802;2022-12-11T01:27:52;35.42;;;27.38;;
11151;SDS011;5630;49.342;10.802;2022-12-11T01:30:18;37.85;;;29.33;;
11151;SDS011;5630;49.342;10.802;2022-12-11T01:32:45;35.33;;;27.80;;
11151;SDS011;5630;49.342;10.802;2022-12-11T01:35:11;36.93;;;28.97;;
11151;SDS011;5630;49.342;10.802;2022-12-11T01:37:37;36.25;;;27.00;;
11151;SDS011;5630;49.342;10.802;2022-12-11T01:40:04;37.23;;;28.20;;
11151;SDS011;5630;49.342;10.802;2022-12-11T01:42:31;35.03;;;27.65;;
11151;SDS011;5630;49.342;10.802;2022-12-11T01:48:11;33.35;;;26.58;;
11151;SDS011;5630;49.342;10.802;2022-12-11T01:50:41;34.40;;;27.25;;
11151;SDS011;5630;49.342;10.802;2022-12-11T01:53:09;31.27;;;25.40;;
11151;SDS011;5630;49.342;10.802;2022-12-11T01:55:39;34.38;;;26.20;;
11151;SDS011;5630;49.342;10.802;2022-12-11T01:58:05;31.83;;;26.95;;
11151;SDS011;5630;49.342;10.802;2022-12-11T02:00:32;32.15;;;26.08;;
11151;SDS011;5630;49.342;10.802;2022-12-11T02:02:57;31.30;;;25.63;;
11151;SDS011;5630;49.342;10.802;2022-12-11T02:05:23;33.77;;;27.53;;
11151;SDS011;5630;49.342;10.802;2022-12-11T02:07:50;31.23;;;26.20;;
11151;SDS011;5630;49.342;10.802;2022-12-11T02:10:19;32.35;;;26.38;;
11151;SDS011;5630;49.342;10.802;2022-12-11T02:20:57;31.43;;;24.87;;
11151;SDS011;5630;49.342;10.802;2022-12-11T02:26:01;30.50;;;23.90;;
11151;SDS011;5630;49.342;10.802;2022-12-11T02:28:42;30.95;;;24.52;;
11151;SDS011;5630;49.342;10.802;2022-12-11T02:36:33;27.42;;;23.02;;
11151;SDS011;5630;49.342;10.802;2022-12-11T02:39:06;28.67;;;23.55;;
11151;SDS011;5630;49.342;10.802;2022-12-11T02:41:36;29.95;;;23.10;;
11151;SDS011;5630;49.342;10.802;2022-12-11T02:44:06;29.67;;;23.85;;
11151;SDS011;5630;49.342;10.802;2022-12-11T02:46:34;28.27;;;24.33;;
11151;SDS011;5630;49.342;10.802;2022-12-11T02:49:02;28.08;;;23.48;;
11151;SDS011;5630;49.342;10.802;2022-12-11T02:51:32;29.20;;;23.83;;
11151;SDS011;5630;49.342;10.802;2022-12-11T02:54:00;26.95;;;22.92;;
11151;SDS011;5630;49.342;10.802;2022-12-11T02:59:43;29.73;;;23.27;;
11151;SDS011;5630;49.342;10.802;2022-12-11T03:02:10;26.13;;;22.73;;
11151;SDS011;5630;49.342;10.802;2022-12-11T03:04:37;28.00;;;22.73;;
11151;SDS011;5630;49.342;10.802;2022-12-11T03:07:07;28.17;;;23.30;;
11151;SDS011;5630;49.342;10.802;2022-12-11T03:09:40;29.38;;;23.83;;
11151;SDS011;5630;49.342;10.802;2022-12-11T03:12:06;29.10;;;23.58;;
11151;SDS011;5630;49.342;10.802;2022-12-11T03:14:35;29.92;;;23.45;;
11151;SDS011;5630;49.342;10.802;2022-12-11T03:22:38;30.08;;;23.92;;
11151;SDS011;5630;49.342;10.802;2022-12-11T03:25:12;31.23;;;24.73;;
11151;SDS011;5630;49.342;10.802;2022-12-11T03:27:47;28.45;;;22.98;;
11151;SDS011;5630;49.342;10.802;2022-12-11T03:30:17;30.25;;;24.15;;
11151;SDS011;5630;49.342;10.802;2022-12-11T03:33:20;30.25;;;22.75;;
11151;SDS011;5630;49.342;10.802;2022-12-11T03:35:40;26.35;;;21.48;;
11151;SDS011;5630;49.342;10.802;2022-12-11T03:38:34;25.92;;;21.98;;
11151;SDS011;5630;49.342;10.802;2022-12-11T03:41:04;26.75;;;22.52;;
11151;SDS011;5630;49.342;10.802;2022-12-11T03:43:31;25.35;;;21.08;;
11151;SDS011;5630;49.342;10.802;2022-12-11T03:45:59;26.67;;;22.02;;
11151;SDS011;5630;49.342;10.802;2022-12-11T03:48:26;31.07;;;24.00;;
11151;SDS011;5630;49.342;10.802;2022-12-11T03:50:56;118.05;;;70.03;;
11151;SDS011;5630;49.342;10.802;2022-12-11T03:53:23;33.90;;;25.15;;
11151;SDS011;5630;49.342;10.802;2022-12-11T03:55:51;24.33;;;19.88;;
11151;SDS011;5630;49.342;10.802;2022-12-11T03:58:17;21.60;;;18.30;;
11151;SDS011;5630;49.342;10.802;2022-12-11T04:00:43;22.77;;;18.03;;
11151;SDS011;5630;49.342;10.802;2022-12-11T04:03:08;22.27;;;17.77;;
11151;SDS011;5630;49.342;10.802;2022-12-11T04:05:37;22.75;;;18.85;;
11151;SDS011;5630;49.342;10.802;2022-12-11T04:08:04;21.40;;;17.95;;
11151;SDS011;5630;49.342;10.802;2022-12-11T04:10:29;22.97;;;18.50;;
11151;SDS011;5630;49.342;10.802;2022-12-11T04:12:55;20.97;;;17.43;;
11151;SDS011;5630;49.342;10.802;2022-12-11T04:15:20;20.50;;;17.47;;
11151;SDS011;5630;49.342;10.802;2022-12-11T04:17:46;21.50;;;18.10;;
11151;SDS011;5630;49.342;10.802;2022-12-11T04:20:30;18.85;;;16.83;;
11151;SDS011;5630;49.342;10.802;2022-12-11T04:23:16;20.23;;;16.90;;
11151;SDS011;5630;49.342;10.802;2022-12-11T04:26:05;19.20;;;16.52;;
11151;SDS011;5630;49.342;10.802;2022-12-11T04:28:33;20.38;;;17.52;;
11151;SDS011;5630;49.342;10.802;2022-12-11T04:30:59;21.85;;;17.88;;
11151;SDS011;5630;49.342;10.802;2022-12-11T04:33:25;21.07;;;17.87;;
11151;SDS011;5630;49.342;10.802;2022-12-11T04:35:50;21.40;;;18.60;;
11151;SDS011;5630;49.342;10.802;2022-12-11T04:38:16;22.77;;;18.37;;
11151;SDS011;5630;49.342;10.802;2022-12-11T04:40:41;20.33;;;17.47;;
11151;SDS011;5630;49.342;10.802;2022-12-11T04:43:07;20.93;;;18.03;;
11151;SDS011;5630;49.342;10.802;2022-12-11T04:45:32;21.40;;;16.70;;
11151;SDS011;5630;49.342;10.802;2022-12-11T04:47:58;21.27;;;18.10;;
11151;SDS011;5630;49.342;10.802;2022-12-11T04:50:23;21.07;;;17.00;;
11151;SDS011;5630;49.342;10.802;2022-12-11T04:52:52;21.98;;;17.70;;
11151;SDS011;5630;49.342;10.802;2022-12-11T04:55:19;21.23;;;17.45;;
11151;SDS011;5630;49.342;10.802;2022-12-11T04:57:44;20.67;;;16.70;;
11151;SDS011;5630;49.342;10.802;2022-12-11T05:00:10;19.17;;;16.80;;
11151;SDS011;5630;49.342;10.802;2022-12-11T05:02:36;20.42;;;16.17;;
11151;SDS011;5630;49.342;10.802;2022-12-11T05:05:03;18.73;;;15.68;;
11151;SDS011;5630;49.342;10.802;2022-12-11T05:07:29;20.38;;;17.02;;
11151;SDS011;5630;49.342;10.802;2022-12-11T05:09:56;21.05;;;15.77;;
11151;SDS011;5630;49.342;10.802;2022-12-11T05:12:21;21.97;;;17.30;;
11151;SDS011;5630;49.342;10.802;2022-12-11T05:14:49;21.23;;;16.63;;
11151;SDS011;5630;49.342;10.802;2022-12-11T05:17:16;22.25;;;17.25;;
11151;SDS011;5630;49.342;10.802;2022-12-11T05:19:41;18.33;;;15.33;;
11151;SDS011;5630;49.342;10.802;2022-12-11T05:22:07;21.60;;;17.37;;
11151;SDS011;5630;49.342;10.802;2022-12-11T05:24:33;20.08;;;16.08;;
11151;SDS011;5630;49.342;10.802;2022-12-11T05:26:59;22.17;;;17.33;;
11151;SDS011;5630;49.342;10.802;2022-12-11T05:29:24;20.77;;;17.27;;
11151;SDS011;5630;49.342;10.802;2022-12-11T05:31:50;19.30;;;16.17;;
11151;SDS011;5630;49.342;10.802;2022-12-11T05:34:15;19.97;;;16.70;;
11151;SDS011;5630;49.342;10.802;2022-12-11T05:36:41;18.97;;;16.33;;
11151;SDS011;5630;49.342;10.802;2022-12-11T05:39:06;18.43;;;15.17;;
11151;SDS011;5630;49.342;10.802;2022-12-11T05:41:33;19.42;;;16.58;;
11151;SDS011;5630;49.342;10.802;2022-12-11T05:43:59;18.03;;;15.17;;
11151;SDS011;5630;49.342;10.802;2022-12-11T05:46:25;18.77;;;15.17;;
11151;SDS011;5630;49.342;10.802;2022-12-11T05:48:56;18.42;;;15.73;;
11151;SDS011;5630;49.342;10.802;2022-12-11T05:51:24;19.27;;;16.05;;
11151;SDS011;5630;49.342;10.802;2022-12-11T05:53:51;19.00;;;16.40;;
11151;SDS011;5630;49.342;10.802;2022-12-11T05:56:18;18.30;;;15.45;;
11151;SDS011;5630;49.342;10.802;2022-12-11T05:58:46;19.17;;;15.65;;
11151;SDS011;5630;49.342;10.802;2022-12-11T06:01:13;17.80;;;15.48;;
11151;SDS011;5630;49.342;10.802;2022-12-11T06:03:56;18.83;;;16.27;;
11151;SDS011;5630;49.342;10.802;2022-12-11T06:06:22;20.67;;;17.05;;
11151;SDS011;5630;49.342;10.802;2022-12-11T06:08:49;19.02;;;16.08;;
11151;SDS011;5630;49.342;10.802;2022-12-11T06:11:15;17.63;;;14.95;;
11151;SDS011;5630;49.342;10.802;2022-12-11T06:13:41;19.77;;;14.90;;
11151;SDS011;5630;49.342;10.802;2022-12-11T06:16:07;18.33;;;15.77;;
11151;SDS011;5630;49.342;10.802;2022-12-11T06:18:34;19.35;;;16.02;;
11151;SDS011;5630;49.342;10.802;2022-12-11T06:21:01;17.48;;;14.88;;
11151;SDS011;5630;49.342;10.802;2022-12-11T06:23:26;18.47;;;16.43;;
11151;SDS011;5630;49.342;10.802;2022-12-11T06:25:52;18.57;;;15.90;;
11151;SDS011;5630;49.342;10.802;2022-12-11T06:28:17;21.83;;;16.97;;
11151;SDS011;5630;49.342;10.802;2022-12-11T06:30:43;19.50;;;16.37;;
11151;SDS011;5630;49.342;10.802;2022-12-11T06:33:09;18.83;;;16.70;;
11151;SDS011;5630;49.342;10.802;2022-12-11T06:35:34;19.10;;;16.53;;
11151;SDS011;5630;49.342;10.802;2022-12-11T06:38:00;18.17;;;15.20;;
11151;SDS011;5630;49.342;10.802;2022-12-11T06:40:25;22.40;;;18.03;;
11151;SDS011;5630;49.342;10.802;2022-12-11T06:42:52;22.57;;;16.10;;
11151;SDS011;5630;49.342;10.802;2022-12-11T06:45:18;17.95;;;16.00;;
11151;SDS011;5630;49.342;10.802;2022-12-11T06:47:44;20.47;;;17.67;;
11151;SDS011;5630;49.342;10.802;2022-12-11T06:50:10;19.00;;;16.60;;
11151;SDS011;5630;49.342;10.802;2022-12-11T06:52:36;18.40;;;16.40;;
11151;SDS011;5630;49.342;10.802;2022-12-11T06:55:02;24.23;;;20.50;;
11151;SDS011;5630;49.342;10.802;2022-12-11T06:57:28;25.13;;;20.40;;
11151;SDS011;5630;49.342;10.802;2022-12-11T06:59:54;36.07;;;27.13;;
11151;SDS011;5630;49.342;10.802;2022-12-11T07:02:20;34.17;;;27.70;;
11151;SDS011;5630;49.342;10.802;2022-12-11T07:04:46;27.40;;;22.48;;
11151;SDS011;5630;49.342;10.802;2022-12-11T07:07:12;31.93;;;25.07;;
11151;SDS011;5630;49.342;10.802;2022-12-11T07:09:39;51.03;;;37.93;;
11151;SDS011;5630;49.342;10.802;2022-12-11T07:12:05;42.33;;;30.38;;
11151;SDS011;5630;49.342;10.802;2022-12-11T07:14:31;54.95;;;37.95;;
11151;SDS011;5630;49.342;10.802;2022-12-11T07:16:57;40.50;;;30.10;;
11151;SDS011;5630;49.342;10.802;2022-12-11T07:19:24;31.95;;;25.90;;
11151;SDS011;5630;49.342;10.802;2022-12-11T07:21:50;27.73;;;21.67;;
11151;SDS011;5630;49.342;10.802;2022-12-11T07:24:16;23.50;;;18.27;;
11151;SDS011;5630;49.342;10.802;2022-12-11T07:26:42;25.67;;;20.55;;
11151;SDS011;5630;49.342;10.802;2022-12-11T07:29:08;23.23;;;18.13;;
11151;SDS011;5630;49.342;10.802;2022-12-11T07:31:34;26.47;;;20.07;;
11151;SDS011;5630;49.342;10.802;2022-12-11T07:34:01;37.45;;;27.95;;
11151;SDS011;5630;49.342;10.802;2022-12-11T07:36:28;38.15;;;26.67;;
11151;SDS011;5630;49.342;10.802;2022-12-11T07:38:54;33.95;;;25.25;;
11151;SDS011;5630;49.342;10.802;2022-12-11T07:41:20;40.67;;;29.35;;
11151;SDS011;5630;49.342;10.802;2022-12-11T07:43:47;37.50;;;26.83;;
11151;SDS011;5630;49.342;10.802;2022-12-11T07:46:14;31.70;;;23.73;;
11151;SDS011;5630;49.342;10.802;2022-12-11T07:48:43;38.17;;;25.65;;
11151;SDS011;5630;49.342;10.802;2022-12-11T07:51:10;26.80;;;19.95;;
11151;SDS011;5630;49.342;10.802;2022-12-11T07:53:41;26.55;;;21.73;;
11151;SDS011;5630;49.342;10.802;2022-12-11T07:56:08;20.65;;;17.38;;
11151;SDS011;5630;49.342;10.802;2022-12-11T07:58:34;46.08;;;34.28;;
11151;SDS011;5630;49.342;10.802;2022-12-11T08:01:02;29.13;;;21.95;;
11151;SDS011;5630;49.342;10.802;2022-12-11T08:03:48;24.98;;;20.80;;
11151;SDS011;5630;49.342;10.802;2022-12-11T08:06:14;26.25;;;22.13;;
11151;SDS011;5630;49.342;10.802;2022-12-11T08:08:40;22.53;;;19.10;;
11151;SDS011;5630;49.342;10.802;2022-12-11T08:11:07;27.67;;;20.97;;
11151;SDS011;5630;49.342;10.802;2022-12-11T08:13:34;24.40;;;20.35;;
11151;SDS011;5630;49.342;10.802;2022-12-11T08:16:03;23.10;;;19.47;;
11151;SDS011;5630;49.342;10.802;2022-12-11T08:18:31;18.95;;;16.90;;
11151;SDS011;5630;49.342;10.802;2022-12-11T08:20:57;22.30;;;17.17;;
11151;SDS011;5630;49.342;10.802;2022-12-11T08:23:23;21.17;;;17.10;;
11151;SDS011;5630;49.342;10.802;2022-12-11T08:25:48;18.70;;;16.57;;
11151;SDS011;5630;49.342;10.802;2022-12-11T08:28:14;21.00;;;16.83;;
11151;SDS011;5630;49.342;10.802;2022-12-11T08:30:39;23.23;;;18.57;;
11151;SDS011;5630;49.342;10.802;2022-12-11T08:33:05;23.17;;;17.70;;
11151;SDS011;5630;49.342;10.802;2022-12-11T08:35:31;24.03;;;17.93;;
11151;SDS011;5630;49.342;10.802;2022-12-11T08:37:56;25.07;;;20.53;;
11151;SDS011;5630;49.342;10.802;2022-12-11T08:40:22;18.67;;;16.53;;
11151;SDS011;5630;49.342;10.802;2022-12-11T08:42:47;21.57;;;18.07;;
11151;SDS011;5630;49.342;10.802;2022-12-11T08:45:14;20.27;;;16.90;;
11151;SDS011;5630;49.342;10.802;2022-12-11T08:47:39;18.43;;;15.83;;
11151;SDS011;5630;49.342;10.802;2022-12-11T08:50:05;21.13;;;16.67;;
11151;SDS011;5630;49.342;10.802;2022-12-11T08:52:32;19.47;;;16.00;;
11151;SDS011;5630;49.342;10.802;2022-12-11T08:54:58;19.92;;;16.55;;
11151;SDS011;5630;49.342;10.802;2022-12-11T08:57:24;19.20;;;15.87;;
11151;SDS011;5630;49.342;10.802;2022-12-11T08:59:51;20.35;;;15.68;;
11151;SDS011;5630;49.342;10.802;2022-12-11T09:02:16;43.70;;;32.10;;
11151;SDS011;5630;49.342;10.802;2022-12-11T09:04:42;19.93;;;16.87;;
11151;SDS011;5630;49.342;10.802;2022-12-11T09:07:07;21.30;;;15.93;;
11151;SDS011;5630;49.342;10.802;2022-12-11T09:09:33;18.23;;;15.23;;
11151;SDS011;5630;49.342;10.802;2022-12-11T09:11:58;18.47;;;15.53;;
11151;SDS011;5630;49.342;10.802;2022-12-11T09:14:25;20.77;;;15.57;;
11151;SDS011;5630;49.342;10.802;2022-12-11T09:16:51;22.40;;;15.37;;
11151;SDS011;5630;49.342;10.802;2022-12-11T09:19:16;21.37;;;16.07;;
11151;SDS011;5630;49.342;10.802;2022-12-11T09:21:42;19.17;;;16.50;;
11151;SDS011;5630;49.342;10.802;2022-12-11T09:24:08;17.90;;;15.20;;
11151;SDS011;5630;49.342;10.802;2022-12-11T09:26:35;22.30;;;16.60;;
11151;SDS011;5630;49.342;10.802;2022-12-11T09:29:02;24.77;;;16.55;;
11151;SDS011;5630;49.342;10.802;2022-12-11T09:31:30;16.52;;;13.98;;
11151;SDS011;5630;49.342;10.802;2022-12-11T09:33:59;19.45;;;15.48;;
11151;SDS011;5630;49.342;10.802;2022-12-11T09:36:26;19.63;;;15.27;;
11151;SDS011;5630;49.342;10.802;2022-12-11T09:38:52;20.38;;;15.25;;
11151;SDS011;5630;49.342;10.802;2022-12-11T09:46:33;18.00;;;14.95;;
11151;SDS011;5630;49.342;10.802;2022-12-11T09:49:01;17.08;;;14.20;;
11151;SDS011;5630;49.342;10.802;2022-12-11T09:54:50;19.80;;;16.42;;
11151;SDS011;5630;49.342;10.802;2022-12-11T10:00:02;20.90;;;15.85;;
11151;SDS011;5630;49.342;10.802;2022-12-11T10:05:49;16.10;;;13.15;;
11151;SDS011;5630;49.342;10.802;2022-12-11T10:08:41;15.38;;;12.23;;
11151;SDS011;5630;49.342;10.802;2022-12-11T10:11:28;16.95;;;13.52;;
11151;SDS011;5630;49.342;10.802;2022-12-11T10:14:06;15.13;;;12.43;;
11151;SDS011;5630;49.342;10.802;2022-12-11T10:16:43;14.93;;;13.25;;
11151;SDS011;5630;49.342;10.802;2022-12-11T10:19:20;14.02;;;11.98;;
11151;SDS011;5630;49.342;10.802;2022-12-11T10:21:51;16.13;;;12.70;;
11151;SDS011;5630;49.342;10.802;2022-12-11T10:24:29;14.95;;;12.45;;
11151;SDS011;5630;49.342;10.802;2022-12-11T10:27:17;19.90;;;13.40;;
11151;SDS011;5630;49.342;10.802;2022-12-11T10:29:45;16.33;;;13.18;;
11151;SDS011;5630;49.342;10.802;2022-12-11T10:32:22;18.00;;;13.93;;
11151;SDS011;5630;49.342;10.802;2022-12-11T10:34:56;18.77;;;13.93;;
11151;SDS011;5630;49.342;10.802;2022-12-11T10:37:26;23.40;;;18.10;;
11151;SDS011;5630;49.342;10.802;2022-12-11T10:39:52;16.40;;;13.70;;
11151;SDS011;5630;49.342;10.802;2022-12-11T10:42:21;19.70;;;13.60;;
11151;SDS011;5630;49.342;10.802;2022-12-11T10:47:40;17.50;;;14.18;;
11151;SDS011;5630;49.342;10.802;2022-12-11T10:50:05;16.17;;;13.17;;
11151;SDS011;5630;49.342;10.802;2022-12-11T10:52:32;17.13;;;13.87;;
11151;SDS011;5630;49.342;10.802;2022-12-11T10:55:03;19.13;;;14.68;;
11151;SDS011;5630;49.342;10.802;2022-12-11T10:57:42;20.02;;;15.88;;
11151;SDS011;5630;49.342;10.802;2022-12-11T11:00:25;25.13;;;18.07;;
11151;SDS011;5630;49.342;10.802;2022-12-11T11:03:06;32.80;;;23.55;;
11151;SDS011;5630;49.342;10.802;2022-12-11T11:06:00;30.05;;;22.25;;
11151;SDS011;5630;49.342;10.802;2022-12-11T11:08:49;22.13;;;16.80;;
11151;SDS011;5630;49.342;10.802;2022-12-11T11:11:23;22.58;;;18.02;;
11151;SDS011;5630;49.342;10.802;2022-12-11T11:14:12;19.33;;;16.90;;
11151;SDS011;5630;49.342;10.802;2022-12-11T11:16:40;22.25;;;17.75;;
11151;SDS011;5630;49.342;10.802;2022-12-11T11:19:15;23.50;;;18.88;;
11151;SDS011;5630;49.342;10.802;2022-12-11T11:21:47;23.90;;;19.27;;
11151;SDS011;5630;49.342;10.802;2022-12-11T11:24:34;23.13;;;18.83;;
11151;SDS011;5630;49.342;10.802;2022-12-11T11:27:10;24.17;;;19.13;;
11151;SDS011;5630;49.342;10.802;2022-12-11T11:29:36;25.48;;;20.30;;
11151;SDS011;5630;49.342;10.802;2022-12-11T11:37:38;27.02;;;20.27;;
11151;SDS011;5630;49.342;10.802;2022-12-11T11:40:18;23.13;;;19.10;;
11151;SDS011;5630;49.342;10.802;2022-12-11T11:42:48;24.10;;;20.38;;
11151;SDS011;5630;49.342;10.802;2022-12-11T11:45:16;27.73;;;22.20;;
11151;SDS011;5630;49.342;10.802;2022-12-11T11:47:58;26.67;;;21.88;;
11151;SDS011;5630;49.342;10.802;2022-12-11T11:50:34;24.80;;;20.02;;
11151;SDS011;5630;49.342;10.802;2022-12-11T11:53:11;25.42;;;19.35;;
11151;SDS011;5630;49.342;10.802;2022-12-11T11:58:38;25.98;;;20.38;;
11151;SDS011;5630;49.342;10.802;2022-12-11T12:01:14;27.20;;;22.50;;
11151;SDS011;5630;49.342;10.802;2022-12-11T12:03:41;29.35;;;22.30;;
11151;SDS011;5630;49.342;10.802;2022-12-11T12:09:35;24.90;;;20.33;;
11151;SDS011;5630;49.342;10.802;2022-12-11T12:18:20;20.83;;;17.75;;
11151;SDS011;5630;49.342;10.802;2022-12-11T12:21:09;21.88;;;17.17;;
11151;SDS011;5630;49.342;10.802;2022-12-11T12:24:04;23.40;;;19.08;;
11151;SDS011;5630;49.342;10.802;2022-12-11T12:26:36;22.98;;;18.98;;
11151;SDS011;5630;49.342;10.802;2022-12-11T12:29:15;20.08;;;16.17;;
11151;SDS011;5630;49.342;10.802;2022-12-11T12:32:07;25.13;;;19.13;;
11151;SDS011;5630;49.342;10.802;2022-12-11T12:40:32;21.38;;;17.85;;
11151;SDS011;5630;49.342;10.802;2022-12-11T12:48:58;28.70;;;23.02;;
11151;SDS011;5630;49.342;10.802;2022-12-11T12:51:26;26.40;;;22.00;;
11151;SDS011;5630;49.342;10.802;2022-12-11T12:53:56;30.55;;;23.92;;
11151;SDS011;5630;49.342;10.802;2022-12-11T12:56:26;29.80;;;24.23;;
11151;SDS011;5630;49.342;10.802;2022-12-11T12:58:54;25.52;;;21.02;;
11151;SDS011;5630;49.342;10.802;2022-12-11T13:01:23;29.43;;;22.80;;
11151;SDS011;5630;49.342;10.802;2022-12-11T13:04:01;30.67;;;23.90;;
11151;SDS011;5630;49.342;10.802;2022-12-11T13:06:30;29.88;;;23.38;;
11151;SDS011;5630;49.342;10.802;2022-12-11T13:11:43;30.27;;;23.65;;
11151;SDS011;5630;49.342;10.802;2022-12-11T13:16:43;30.17;;;24.58;;
11151;SDS011;5630;49.342;10.802;2022-12-11T13:24:30;29.75;;;24.05;;
11151;SDS011;5630;49.342;10.802;2022-12-11T13:27:10;28.50;;;22.85;;
11151;SDS011;5630;49.342;10.802;2022-12-11T13:30:06;26.42;;;21.92;;
11151;SDS011;5630;49.342;10.802;2022-12-11T13:32:58;29.98;;;23.58;;
11151;SDS011;5630;49.342;10.802;2022-12-11T13:35:29;28.95;;;23.30;;
11151;SDS011;5630;49.342;10.802;2022-12-11T13:37:59;21.60;;;18.60;;
11151;SDS011;5630;49.342;10.802;2022-12-11T13:40:40;23.73;;;20.13;;
11151;SDS011;5630;49.342;10.802;2022-12-11T13:43:14;24.15;;;19.75;;
11151;SDS011;5630;49.342;10.802;2022-12-11T13:45:59;28.02;;;21.33;;
11151;SDS011;5630;49.342;10.802;2022-12-11T13:50:58;22.60;;;17.85;;
11151;SDS011;5630;49.342;10.802;2022-12-11T13:53:25;22.15;;;18.40;;
11151;SDS011;5630;49.342;10.802;2022-12-11T13:55:57;21.87;;;18.50;;
11151;SDS011;5630;49.342;10.802;2022-12-11T13:58:28;23.58;;;20.10;;
11151;SDS011;5630;49.342;10.802;2022-12-11T14:01:05;21.42;;;18.05;;
11151;SDS011;5630;49.342;10.802;2022-12-11T14:06:40;19.65;;;16.25;;
11151;SDS011;5630;49.342;10.802;2022-12-11T14:09:06;19.55;;;16.35;;
11151;SDS011;5630;49.342;10.802;2022-12-11T14:11:37;21.92;;;16.90;;
11151;SDS011;5630;49.342;10.802;2022-12-11T14:14:06;23.20;;;18.35;;
11151;SDS011;5630;49.342;10.802;2022-12-11T14:16:41;25.45;;;19.00;;
11151;SDS011;5630;49.342;10.802;2022-12-11T14:19:06;22.90;;;17.30;;
11151;SDS011;5630;49.342;10.802;2022-12-11T14:21:33;21.52;;;17.65;;
11151;SDS011;5630;49.342;10.802;2022-12-11T14:24:00;23.45;;;18.38;;
11151;SDS011;5630;49.342;10.802;2022-12-11T14:28:57;19.33;;;15.63;;
11151;SDS011;5630;49.342;10.802;2022-12-11T14:31:27;17.80;;;14.43;;
11151;SDS011;5630;49.342;10.802;2022-12-11T14:34:03;18.45;;;15.90;;
11151;SDS011;5630;49.342;10.802;2022-12-11T14:36:35;24.98;;;17.65;;
11151;SDS011;5630;49.342;10.802;2022-12-11T14:39:02;21.55;;;17.73;;
11151;SDS011;5630;49.342;10.802;2022-12-11T14:42:01;19.15;;;15.32;;
11151;SDS011;5630;49.342;10.802;2022-12-11T14:44:34;15.88;;;13.25;;
11151;SDS011;5630;49.342;10.802;2022-12-11T14:47:11;15.38;;;12.43;;
11151;SDS011;5630;49.342;10.802;2022-12-11T14:49:47;20.77;;;14.25;;
11151;SDS011;5630;49.342;10.802;2022-12-11T14:52:23;18.98;;;15.27;;
11151;SDS011;5630;49.342;10.802;2022-12-11T14:55:15;17.85;;;14.85;;
11151;SDS011;5630;49.342;10.802;2022-12-11T14:57:46;19.52;;;15.68;;
11151;SDS011;5630;49.342;10.802;2022-12-11T15:00:26;21.60;;;16.63;;
11151;SDS011;5630;49.342;10.802;2022-12-11T15:03:00;20.70;;;17.15;;
11151;SDS011;5630;49.342;10.802;2022-12-11T15:05:27;25.25;;;19.77;;
11151;SDS011;5630;49.342;10.802;2022-12-11T15:07:58;25.42;;;20.95;;
11151;SDS011;5630;49.342;10.802;2022-12-11T15:10:29;22.83;;;18.17;;
11151;SDS011;5630;49.342;10.802;2022-12-11T15:12:59;20.98;;;16.80;;
11151;SDS011;5630;49.342;10.802;2022-12-11T15:15:25;23.80;;;18.27;;
11151;SDS011;5630;49.342;10.802;2022-12-11T15:17:53;20.40;;;15.80;;
11151;SDS011;5630;49.342;10.802;2022-12-11T15:20:20;21.27;;;16.63;;
11151;SDS011;5630;49.342;10.802;2022-12-11T15:22:48;17.98;;;14.13;;
11151;SDS011;5630;49.342;10.802;2022-12-11T15:25:22;16.80;;;13.88;;
11151;SDS011;5630;49.342;10.802;2022-12-11T15:27:54;18.40;;;14.25;;
11151;SDS011;5630;49.342;10.802;2022-12-11T15:35:36;24.00;;;17.50;;
11151;SDS011;5630;49.342;10.802;2022-12-11T15:38:03;32.85;;;21.00;;
11151;SDS011;5630;49.342;10.802;2022-12-11T15:40:29;43.60;;;28.05;;
11151;SDS011;5630;49.342;10.802;2022-12-11T15:42:55;36.90;;;27.50;;
11151;SDS011;5630;49.342;10.802;2022-12-11T15:45:25;20.10;;;15.38;;
11151;SDS011;5630;49.342;10.802;2022-12-11T15:47:52;17.80;;;14.70;;
11151;SDS011;5630;49.342;10.802;2022-12-11T15:50:22;17.70;;;14.20;;
11151;SDS011;5630;49.342;10.802;2022-12-11T15:52:50;16.70;;;13.10;;
11151;SDS011;5630;49.342;10.802;2022-12-11T15:55:17;18.98;;;16.05;;
11151;SDS011;5630;49.342;10.802;2022-12-11T15:57:48;16.63;;;13.65;;
11151;SDS011;5630;49.342;10.802;2022-12-11T16:00:17;22.00;;;16.95;;
11151;SDS011;5630;49.342;10.802;2022-12-11T16:02:44;20.70;;;16.27;;
11151;SDS011;5630;49.342;10.802;2022-12-11T16:05:10;36.70;;;27.83;;
11151;SDS011;5630;49.342;10.802;2022-12-11T16:07:36;24.47;;;19.53;;
11151;SDS011;5630;49.342;10.802;2022-12-11T16:10:02;24.88;;;18.17;;
11151;SDS011;5630;49.342;10.802;2022-12-11T16:12:28;26.70;;;20.98;;
11151;SDS011;5630;49.342;10.802;2022-12-11T16:14:53;30.10;;;23.73;;